Time;durP1;ratioP1;P1;durP2;ratioP2;P2;SDS_P1;SDS_P2;PMS_P1;PMS_P2;Temp;Humidity;BMP_temperature;BMP_pressure;BME280_temperature;BME280_humidity;BME280_pressure;Samples;Min_cycle;Max_cycle;Signal;HPM_P1;HPM_P2
2022/03/18 00:01:01;;;;;;;96.60;67.23;;;7.60;99.90;;;8.30;100.00;99463.09;5199767;28;20194;-55
2022/03/18 00:03:34;;;;;;;95.17;66.67;;;7.60;99.90;;;8.32;100.00;99470.88;5199610;28;20194;-56
2022/03/18 00:06:10;;;;;;;97.70;66.97;;;7.60;99.90;;;8.31;100.00;99469.97;5186160;28;20199;-53
2022/03/18 00:08:44;;;;;;;95.27;65.23;;;7.50;99.90;;;8.32;100.00;99470.88;5190020;28;20233;-56
2022/03/18 00:11:17;;;;;;;93.73;65.30;;;7.50;99.90;;;8.33;100.00;99467.59;5191626;28;20208;-57
2022/03/18 00:13:50;;;;;;;86.90;61.97;;;7.60;99.90;;;8.31;100.00;99471.63;5190383;28;20569;-56
2022/03/18 00:16:23;;;;;;;99.80;67.83;;;7.60;99.90;;;8.37;100.00;99468.75;5192295;28;20206;-55
2022/03/18 00:19:00;;;;;;;95.50;66.83;;;7.60;99.90;;;8.39;100.00;99468.19;5185571;28;20222;-53
2022/03/18 00:21:35;;;;;;;95.87;66.40;;;7.60;99.90;;;8.42;100.00;99471.00;5183265;28;20203;-55
2022/03/18 00:24:08;;;;;;;93.43;65.57;;;7.60;99.90;;;8.29;100.00;99465.50;5185231;28;20207;-53
2022/03/18 00:26:41;;;;;;;95.17;64.73;;;7.50;99.90;;;8.24;100.00;99469.25;5184458;28;20221;-53
2022/03/18 00:29:14;;;;;;;89.90;63.03;;;7.50;99.90;;;8.23;100.00;99468.38;5185701;28;20602;-54
2022/03/18 00:31:47;;;;;;;92.37;63.20;;;7.50;99.90;;;8.26;100.00;99466.09;5184849;28;20199;-55
2022/03/18 00:34:21;;;;;;;98.43;65.87;;;7.50;99.90;;;8.26;100.00;99462.66;5185953;28;20214;-54
2022/03/18 00:36:55;;;;;;;91.17;64.53;;;7.50;99.90;;;8.24;100.00;99466.72;5185811;28;20205;-52
2022/03/18 00:39:29;;;;;;;90.47;62.33;;;7.50;99.90;;;8.24;100.00;99469.25;5187608;28;20228;-54
2022/03/18 00:42:03;;;;;;;88.57;60.70;;;7.60;99.90;;;8.21;100.00;99471.53;5187468;28;21260;-57
2022/03/18 00:44:37;;;;;;;89.00;61.33;;;7.50;99.90;;;8.23;100.00;99475.13;5187284;28;20198;-54
2022/03/18 00:52:48;;;;;;;86.03;60.10;;;7.50;99.90;;;8.21;100.00;99476.63;5166233;28;20206;-56
2022/03/18 00:55:21;;;;;;;92.93;63.93;;;7.50;99.90;;;8.24;100.00;99474.34;5186275;28;20206;-55
2022/03/18 00:57:56;;;;;;;93.67;62.50;;;7.50;99.90;;;8.25;100.00;99476.19;5185785;28;20199;-54
2022/03/18 01:00:29;;;;;;;91.83;63.03;;;7.50;99.90;;;8.26;100.00;99475.41;5180934;28;20204;-56
2022/03/18 01:03:02;;;;;;;93.43;64.00;;;7.50;99.90;;;8.33;100.00;99467.59;5189509;28;20241;-56
2022/03/18 01:05:36;;;;;;;95.50;63.50;;;7.50;99.90;;;8.33;100.00;99470.13;5187839;28;20195;-56
2022/03/18 01:08:10;;;;;;;94.63;64.57;;;7.50;99.90;;;8.37;100.00;99474.75;5189824;28;20584;-54
2022/03/18 01:10:44;;;;;;;91.67;60.43;;;7.50;99.90;;;8.27;100.00;99472.09;5187858;28;20209;-58
2022/03/18 01:13:17;;;;;;;91.93;61.03;;;7.50;99.90;;;8.19;100.00;99473.06;5187617;28;20289;-55
2022/03/18 01:15:50;;;;;;;88.97;60.77;;;7.40;99.90;;;8.17;100.00;99475.47;5187518;28;20293;-56
2022/03/18 01:18:23;;;;;;;89.13;59.90;;;7.40;99.90;;;8.15;100.00;99476.94;5185499;28;20226;-57
2022/03/18 01:20:56;;;;;;;82.23;56.73;;;7.40;99.90;;;8.13;100.00;99478.50;5183407;28;20198;-56
2022/03/18 01:23:31;;;;;;;94.97;59.90;;;7.40;99.90;;;8.16;100.00;99472.78;5187389;28;20217;-57
2022/03/18 01:26:04;;;;;;;78.87;55.83;;;7.50;99.90;;;8.19;100.00;99475.63;5187529;28;20653;-55
2022/03/18 01:28:37;;;;;;;84.23;56.73;;;7.50;99.90;;;8.21;100.00;99476.63;5187252;28;20250;-56
2022/03/18 01:31:10;;;;;;;75.80;55.50;;;7.50;99.90;;;8.21;100.00;99474.06;5187005;28;20199;-57
2022/03/18 01:33:43;;;;;;;80.77;53.57;;;7.50;99.90;;;8.23;100.00;99478.56;5191166;28;20564;-56
2022/03/18 01:36:16;;;;;;;86.13;55.17;;;7.50;99.90;;;8.24;100.00;99477.84;5190699;28;20212;-56
2022/03/18 01:38:51;;;;;;;85.53;58.27;;;7.50;99.90;;;8.27;100.00;99479.72;5187695;28;20218;-56
2022/03/18 01:41:24;;;;;;;87.53;58.17;;;7.50;99.90;;;8.27;100.00;99479.72;5187418;28;20213;-56
2022/03/18 01:43:57;;;;;;;88.03;59.00;;;7.50;99.90;;;8.30;100.00;99480.94;5193390;28;20556;-56
2022/03/18 01:46:31;;;;;;;87.17;58.23;;;7.40;99.90;;;8.31;100.00;99476.72;5180224;28;20252;-57
2022/03/18 01:49:04;;;;;;;82.13;55.80;;;7.40;99.90;;;8.19;100.00;99483.25;5192743;28;20225;-55
2022/03/18 01:51:39;;;;;;;72.33;53.10;;;7.40;99.90;;;8.12;100.00;99477.56;5191657;28;20322;-57
2022/03/18 01:57:04;;;;;;;75.23;53.53;;;7.40;99.90;;;8.12;100.00;99480.09;5183387;28;20677;-57
2022/03/18 01:59:37;;;;;;;78.73;53.47;;;7.40;99.90;;;8.16;100.00;99488.06;5188267;28;20217;-57
2022/03/18 02:02:10;;;;;;;77.40;54.70;;;7.40;99.90;;;8.13;100.00;99488.66;5192700;28;20199;-56
2022/03/18 02:04:45;;;;;;;75.37;52.60;;;7.40;99.90;;;8.12;100.00;99487.75;5186859;28;20230;-57
2022/03/18 02:07:18;;;;;;;77.10;51.60;;;7.40;99.90;;;8.11;100.00;99485.97;5192276;28;20205;-56
2022/03/18 02:09:53;;;;;;;73.03;48.83;;;7.40;99.90;;;8.08;100.00;99495.88;5188609;28;20230;-57
2022/03/18 02:12:26;;;;;;;69.47;48.10;;;7.40;99.90;;;8.12;100.00;99497.94;5192777;28;20201;-57
2022/03/18 02:14:59;;;;;;;65.10;47.10;;;7.30;99.90;;;8.12;100.00;99500.47;5182785;28;20195;-58
2022/03/18 02:17:32;;;;;;;67.63;47.20;;;7.30;99.90;;;8.13;100.00;99489.56;5183066;28;20579;-57
2022/03/18 02:20:08;;;;;;;66.03;48.07;;;7.30;99.90;;;8.12;100.00;99497.94;5194910;28;20226;-58
2022/03/18 02:22:42;;;;;;;69.87;46.53;;;7.30;99.90;;;8.12;100.00;99497.94;5195286;28;20202;-57
2022/03/18 02:25:16;;;;;;;63.90;45.93;;;7.30;99.90;;;8.12;100.00;99500.47;5176812;28;20198;-57
2022/03/18 02:28:01;;;;;;;62.47;44.63;;;7.30;99.90;;;8.13;100.00;99502.31;5190153;28;20203;-56
2022/03/18 02:30:34;;;;;;;64.43;45.00;;;7.30;99.90;;;8.11;100.00;99503.78;5188307;28;20230;-57
2022/03/18 02:33:08;;;;;;;65.83;46.07;;;7.30;99.90;;;8.10;100.00;99499.47;5185285;28;20285;-57
2022/03/18 02:35:42;;;;;;;63.97;45.37;;;7.30;99.90;;;8.08;100.00;99500.97;5190270;28;20613;-57
2022/03/18 02:38:16;;;;;;;63.97;46.30;;;7.30;99.90;;;8.08;100.00;99511.16;5183868;28;20261;-58
2022/03/18 02:40:50;;;;;;;62.10;41.87;;;7.30;99.90;;;8.07;100.00;99505.94;5187604;28;20212;-57
2022/03/18 02:43:23;;;;;;;60.87;43.80;;;7.30;99.90;;;8.08;100.00;99516.25;5193162;28;20190;-56
2022/03/18 02:45:56;;;;;;;68.00;46.20;;;7.40;99.90;;;8.04;100.00;99506.53;5190812;28;20212;-56
2022/03/18 02:48:29;;;;;;;62.37;44.57;;;7.30;99.90;;;8.01;100.00;99513.91;5188637;28;20253;-57
2022/03/18 02:51:02;;;;;;;63.60;43.97;;;7.30;99.90;;;8.00;100.00;99512.06;5191101;28;20205;-58
2022/03/18 02:53:38;;;;;;;61.47;43.67;;;7.30;99.90;;;8.04;100.00;99509.09;5191162;28;20685;-57
2022/03/18 02:56:12;;;;;;;64.73;45.57;;;7.30;99.90;;;8.08;100.00;99517.91;5185705;28;20206;-58
2022/03/18 02:58:45;;;;;;;60.07;44.80;;;7.30;99.90;;;8.03;100.00;99512.38;5192017;28;20666;-58
2022/03/18 03:01:19;;;;;;;62.73;44.97;;;7.30;99.90;;;8.05;100.00;99515.06;5188896;28;20213;-58
2022/03/18 03:03:52;;;;;;;67.87;46.07;;;7.30;99.90;;;8.03;100.00;99517.47;5183346;28;20580;-58
2022/03/18 03:09:17;;;;;;;67.13;46.67;;;7.30;99.90;;;8.07;100.00;99529.75;5183776;28;20325;-59
2022/03/18 03:11:50;;;;;;;70.23;47.40;;;7.20;99.90;;;7.96;100.00;99525.28;5192214;28;20193;-56
2022/03/18 03:14:23;;;;;;;61.90;45.73;;;7.10;99.90;;;7.91;100.00;99531.59;5196824;28;20612;-58
2022/03/18 03:16:56;;;;;;;67.20;45.13;;;7.10;99.90;;;7.84;100.00;99526.66;5188042;28;20194;-57
2022/03/18 03:19:30;;;;;;;61.37;44.23;;;7.00;99.90;;;7.81;100.00;99532.38;5198765;28;20232;-58
2022/03/18 03:22:04;;;;;;;61.80;44.57;;;7.00;99.90;;;7.85;100.00;99546.28;5197502;28;20210;-58
2022/03/18 03:24:39;;;;;;;58.83;44.17;;;7.00;99.90;;;7.78;100.00;99539.69;5188146;28;20202;-58
2022/03/18 03:27:12;;;;;;;61.27;42.63;;;7.00;99.90;;;7.80;100.00;99539.88;5187622;28;20632;-58
2022/03/18 03:29:45;;;;;;;61.87;43.13;;;7.00;99.90;;;7.78;100.00;99544.78;5194876;28;20594;-58
2022/03/18 03:32:18;;;;;;;63.10;43.87;;;7.00;99.90;;;7.77;100.00;99547.22;5189714;28;20226;-58
2022/03/18 03:34:51;;;;;;;59.10;42.30;;;7.10;99.90;;;7.82;100.00;99556.19;5187888;28;20559;-57
2022/03/18 03:37:25;;;;;;;61.03;42.87;;;7.10;99.90;;;7.78;100.00;99554.09;5186828;28;20554;-58
2022/03/18 03:39:59;;;;;;;57.73;42.97;;;7.10;99.90;;;7.74;100.00;99563.06;5181103;28;20605;-56
2022/03/18 03:42:32;;;;;;;58.63;42.03;;;7.00;99.90;;;7.80;100.00;99557.69;5178703;28;20213;-58
2022/03/18 03:45:07;;;;;;;59.23;42.83;;;7.00;99.90;;;7.79;100.00;99561.88;5185894;28;20583;-58
2022/03/18 03:47:42;;;;;;;62.83;43.20;;;7.00;99.90;;;7.84;100.00;99553.03;5184114;28;20312;-55
2022/03/18 03:50:15;;;;;;;58.03;41.43;;;7.00;99.90;;;7.82;100.00;99551.09;5181217;28;20236;-58
2022/03/18 03:52:48;;;;;;;60.23;42.40;;;7.10;99.90;;;7.83;100.00;99563.06;5187436;28;20232;-58
2022/03/18 03:55:23;;;;;;;62.90;42.07;;;7.10;99.90;;;7.87;100.00;99563.50;5179148;28;20202;-58
2022/03/18 03:57:56;;;;;;;58.77;42.73;;;7.20;99.90;;;7.92;100.00;99571.56;5187347;28;20461;-59
2022/03/18 04:00:29;;;;;;;55.90;40.53;;;7.10;99.90;;;7.93;100.00;99573.38;5185090;28;20201;-58
2022/03/18 04:03:03;;;;;;;59.43;41.87;;;7.20;99.90;;;7.89;100.00;99564.53;5183536;28;20327;-56
2022/03/18 04:05:38;;;;;;;59.90;41.47;;;7.10;99.90;;;7.90;100.00;99561.25;5187308;28;20218;-57
2022/03/18 04:08:11;;;;;;;58.20;41.93;;;7.10;99.90;;;7.87;100.00;99571.16;5184392;28;20296;-58
2022/03/18 04:10:45;;;;;;;55.70;40.50;;;7.00;99.90;;;7.73;100.00;99571.47;5180570;28;20217;-58
2022/03/18 04:13:18;;;;;;;61.17;41.50;;;7.00;99.90;;;7.77;100.00;99582.84;5186061;28;20279;-57
2022/03/18 04:15:51;;;;;;;59.20;41.67;;;7.10;99.90;;;7.83;100.00;99586.84;5188522;28;20190;-59
2022/03/18 04:18:25;;;;;;;57.50;42.13;;;7.10;99.90;;;7.82;100.00;99581.63;5187234;28;20218;-60
2022/03/18 04:20:58;;;;;;;58.67;40.87;;;7.00;99.90;;;7.83;100.00;99583.41;5187613;28;20277;-59
2022/03/18 04:23:31;;;;;;;58.97;41.17;;;7.00;99.90;;;7.78;100.00;99585.50;5181201;28;20198;-60
2022/03/18 04:26:05;;;;;;;54.10;39.70;;;7.00;99.90;;;7.80;100.00;99586.56;5185116;28;20198;-60
2022/03/18 04:28:38;;;;;;;54.00;39.73;;;7.00;99.90;;;7.62;100.00;99583.16;5189136;28;20222;-59
2022/03/18 04:31:11;;;;;;;53.77;39.17;;;6.90;99.90;;;7.66;100.00;99597.06;5185654;28;20227;-60
2022/03/18 04:33:44;;;;;;;55.30;41.43;;;6.90;99.90;;;7.73;100.00;99598.59;5186919;28;20697;-60
2022/03/18 04:36:17;;;;;;;57.93;41.03;;;7.00;99.90;;;7.76;100.00;99598.88;5189721;28;20590;-60
2022/03/18 04:38:50;;;;;;;54.30;39.47;;;7.00;99.90;;;7.74;100.00;99600.38;5189685;28;20223;-59
2022/03/18 04:41:25;;;;;;;55.03;39.13;;;7.00;99.90;;;7.74;100.00;99602.91;5146502;28;1078060;-60
2022/03/18 04:43:58;;;;;;;55.03;38.00;;;7.00;99.90;;;7.75;100.00;99600.50;5189605;28;20200;-60
2022/03/18 04:46:32;;;;;;;57.60;40.10;;;7.00;99.90;;;7.75;100.00;99603.03;5187592;28;20679;-59
2022/03/18 04:49:05;;;;;;;59.43;41.27;;;7.00;99.90;;;7.81;100.00;99601.13;5189587;28;20316;-60
2022/03/18 04:51:38;;;;;;;55.47;40.00;;;7.00;99.90;;;7.73;100.00;99611.31;5185632;28;20226;-60
2022/03/18 04:54:11;;;;;;;54.50;40.03;;;6.90;99.90;;;7.72;100.00;99619.66;5194192;28;20206;-57
2022/03/18 04:59:36;;;;;;;54.63;39.00;;;6.80;99.90;;;7.56;100.00;99615.66;5188284;28;20569;-59
2022/03/18 05:02:10;;;;;;;57.67;40.30;;;6.90;99.90;;;7.61;100.00;99616.09;5192218;28;20208;-58
2022/03/18 05:04:44;;;;;;;56.03;39.90;;;6.90;99.90;;;7.61;100.00;99613.53;5182520;28;20651;-59
2022/03/18 05:07:18;;;;;;;56.60;40.87;;;6.90;99.90;;;7.51;100.00;99621.94;5189897;28;20210;-58
2022/03/18 05:09:51;;;;;;;55.70;41.13;;;6.90;99.90;;;7.55;100.00;99626.56;5185045;28;20222;-57
2022/03/18 05:12:27;;;;;;;64.53;42.53;;;6.90;99.90;;;7.57;100.00;99627.63;5193270;28;20201;-57
2022/03/18 05:15:01;;;;;;;55.70;40.37;;;6.90;99.90;;;7.65;100.00;99629.25;5190112;28;20209;-58
2022/03/18 05:17:34;;;;;;;58.27;42.90;;;7.00;99.90;;;7.65;100.00;99631.81;5183544;28;20226;-58
2022/03/18 05:20:10;;;;;;;59.77;41.17;;;6.90;99.90;;;7.56;100.00;99643.66;5185073;28;20223;-55
2022/03/18 05:22:45;;;;;;;56.13;40.00;;;6.90;99.90;;;7.57;100.00;99634.34;5187222;28;20573;-58
2022/03/18 05:25:18;;;;;;;54.97;40.50;;;6.90;99.90;;;7.56;100.00;99632.56;5190630;28;20645;-59
2022/03/18 05:27:52;;;;;;;62.23;42.83;;;6.90;99.90;;;7.64;100.00;99641.81;5188507;28;20201;-56
2022/03/18 05:30:25;;;;;;;57.53;42.23;;;6.90;99.90;;;7.55;100.00;99653.66;5194364;28;20226;-58
2022/03/18 05:32:58;;;;;;;59.50;42.53;;;6.90;99.90;;;7.51;100.00;99649.03;5190488;28;20202;-55
2022/03/18 05:35:31;;;;;;;59.60;41.03;;;6.90;99.90;;;7.55;100.00;99661.28;5185753;28;20199;-59
2022/03/18 05:38:04;;;;;;;59.53;41.93;;;6.90;99.90;;;7.52;100.00;99661.88;5186200;28;20201;-57
2022/03/18 05:40:38;;;;;;;59.90;42.70;;;6.90;99.90;;;7.58;100.00;99659.97;5184892;28;20199;-57
2022/03/18 05:43:13;;;;;;;58.83;42.37;;;6.90;99.90;;;7.57;100.00;99660.69;5187314;28;20641;-59
2022/03/18 05:45:47;;;;;;;59.90;41.13;;;7.00;99.90;;;7.61;100.00;99665.34;5186850;28;20297;-60
2022/03/18 05:48:21;;;;;;;58.77;42.60;;;7.00;99.90;;;7.57;100.00;99664.88;5187168;28;20237;-58
2022/03/18 05:50:54;;;;;;;56.17;41.77;;;7.00;99.90;;;7.60;100.00;99671.16;5187126;28;20219;-60
2022/03/18 05:53:28;;;;;;;60.27;42.60;;;7.00;99.90;;;7.64;100.00;99667.28;5186461;28;20691;-60
2022/03/18 05:58:54;;;;;;;57.20;41.93;;;7.00;99.90;;;7.63;100.00;99671.47;5189911;28;20222;-60
2022/03/18 06:01:27;;;;;;;60.67;42.80;;;7.00;99.90;;;7.56;100.00;99680.91;5191400;28;20200;-58
2022/03/18 06:04:01;;;;;;;57.53;43.60;;;7.00;99.90;;;7.55;100.00;99679.09;5190267;28;20202;-58
2022/03/18 06:06:34;;;;;;;60.27;42.83;;;7.00;99.90;;;7.54;100.00;99695.13;5180949;28;20208;-58
2022/03/18 06:11:59;;;;;;;57.87;41.83;;;6.90;99.90;;;7.62;100.00;99695.13;5186270;28;20215;-57
2022/03/18 06:14:33;;;;;;;59.17;42.77;;;7.00;99.90;;;7.66;100.00;99691.22;5178953;28;20199;-58
2022/03/18 06:17:07;;;;;;;59.80;42.20;;;7.00;99.90;;;7.65;100.00;99697.97;5188039;28;20763;-57
2022/03/18 06:19:40;;;;;;;60.90;41.97;;;7.00;99.90;;;7.71;100.00;99696.78;5180791;28;20230;-60
2022/03/18 06:22:13;;;;;;;59.83;44.10;;;7.00;99.90;;;7.73;100.00;99702.94;5185153;28;20198;-59
2022/03/18 06:24:46;;;;;;;57.57;41.50;;;7.10;99.90;;;7.73;100.00;99700.38;5192719;28;20198;-59
2022/03/18 06:27:20;;;;;;;58.70;43.53;;;7.10;99.90;;;7.65;99.88;99710.69;5183342;28;20198;-60
2022/03/18 06:29:54;;;;;;;57.97;42.83;;;7.10;99.90;;;7.73;100.00;99708.91;5181192;28;20595;-60
2022/03/18 06:32:28;;;;;;;62.17;43.53;;;7.10;99.90;;;7.75;100.00;99716.69;5183555;28;20236;-60
2022/03/18 06:35:01;;;;;;;59.23;42.20;;;7.20;99.90;;;7.76;100.00;99713.41;5182414;28;20206;-60
2022/03/18 06:37:34;;;;;;;63.47;43.40;;;7.20;99.90;;;7.79;100.00;99718.78;5185056;28;20268;-60
2022/03/18 06:40:09;;;;;;;58.63;41.80;;;7.20;99.90;;;7.77;100.00;99726.28;5182398;28;20231;-59
2022/03/18 06:42:42;;;;;;;57.40;42.50;;;7.20;99.90;;;7.85;99.25;99734.66;5181080;28;20565;-58
2022/03/18 06:45:16;;;;;;;59.23;43.43;;;7.20;99.90;;;7.83;99.42;99743.78;5182194;28;20221;-60
2022/03/18 06:47:49;;;;;;;58.40;41.97;;;7.20;99.90;;;7.86;99.86;99739.00;5182180;28;20210;-60
2022/03/18 06:50:24;;;;;;;59.13;44.37;;;7.20;99.90;;;7.93;100.00;99733.78;5183989;28;20222;-60
2022/03/18 06:52:57;;;;;;;58.43;44.00;;;7.30;99.90;;;7.86;96.92;99736.44;5184509;28;20209;-60
2022/03/18 06:55:30;;;;;;;60.23;44.37;;;7.30;99.90;;;7.95;95.75;99744.09;5185345;28;20214;-60
2022/03/18 06:58:03;;;;;;;54.70;42.50;;;7.30;99.90;;;7.90;96.27;99739.47;5186046;28;20218;-60
2022/03/18 07:00:39;;;;;;;57.90;43.07;;;7.30;99.90;;;7.92;97.59;99744.69;5184842;28;20658;-60
2022/03/18 07:03:13;;;;;;;56.50;42.03;;;7.40;99.90;;;7.95;97.47;99742.44;5187791;28;20221;-60
2022/03/18 07:05:50;;;;;;;58.13;41.87;;;7.30;99.90;;;7.93;97.35;99749.03;5189975;28;20202;-60
2022/03/18 07:08:24;;;;;;;53.00;41.53;;;7.40;99.90;;;8.00;97.34;99742.91;5180057;28;20615;-60
2022/03/18 07:11:04;;;;;;;55.77;43.13;;;7.30;99.90;;;8.03;95.83;99749.19;5183586;28;20317;-60
2022/03/18 07:13:37;;;;;;;55.20;40.93;;;7.40;99.90;;;8.09;96.98;99751.41;5183691;28;20541;-60
2022/03/18 07:19:02;;;;;;;60.17;44.83;;;7.50;99.90;;;8.16;97.24;99750.38;5158446;28;20265;-60
2022/03/18 07:21:35;;;;;;;59.33;43.83;;;7.50;99.90;;;8.21;96.49;99754.25;5180857;28;20570;-60
2022/03/18 07:24:08;;;;;;;56.17;42.20;;;7.60;99.90;;;8.33;95.24;99758.91;5191771;28;20202;-61
2022/03/18 07:26:41;;;;;;;58.43;42.10;;;7.70;99.90;;;8.36;95.14;99758.31;5182344;28;20214;-60
2022/03/18 07:29:16;;;;;;;58.10;43.63;;;7.70;99.90;;;8.33;94.62;99760.56;5185068;28;20223;-60
2022/03/18 07:31:54;;;;;;;59.70;43.27;;;7.70;99.90;;;8.38;94.71;99759.31;5180111;28;20678;-60
2022/03/18 07:34:27;;;;;;;60.63;43.50;;;7.70;99.90;;;8.41;94.10;99762.19;5180994;28;20194;-59
2022/03/18 07:37:01;;;;;;;55.57;42.73;;;7.80;99.90;;;8.48;94.60;99761.16;5181034;28;20564;-60
2022/03/18 07:39:34;;;;;;;54.47;41.27;;;7.80;99.90;;;8.57;91.25;99762.94;5181667;28;20226;-60
2022/03/18 07:42:08;;;;;;;55.67;42.17;;;7.90;99.90;;;8.59;89.39;99769.84;5181358;28;20222;-60
2022/03/18 07:44:41;;;;;;;54.07;40.97;;;8.00;99.90;;;8.53;90.68;99763.41;5183292;28;20210;-60
2022/03/18 07:47:15;;;;;;;56.03;42.57;;;7.90;99.90;;;8.62;89.09;99765.03;5180084;28;20203;-60
2022/03/18 07:49:48;;;;;;;56.37;41.83;;;8.00;99.90;;;8.51;88.75;99762.34;5183135;28;20226;-59
2022/03/18 07:52:21;;;;;;;52.20;39.93;;;7.90;99.90;;;8.54;90.64;99760.09;5182181;28;20231;-59
2022/03/18 07:54:54;;;;;;;53.97;40.20;;;7.90;99.90;;;8.70;91.57;99766.63;5183833;28;20203;-60
2022/03/18 07:57:28;;;;;;;52.47;40.47;;;8.00;99.90;;;8.68;87.92;99758.84;5176890;28;20198;-60
2022/03/18 08:00:01;;;;;;;48.67;39.97;;;8.10;99.90;;;8.76;86.46;99769.78;5181942;28;20744;-59
2022/03/18 08:02:36;;;;;;;51.37;40.63;;;8.20;99.90;;;8.97;86.30;99769.25;5182034;28;20643;-60
2022/03/18 08:05:10;;;;;;;50.27;39.07;;;8.30;99.90;;;9.02;87.08;99768.03;5184449;28;20492;-60
2022/03/18 08:07:45;;;;;;;52.37;39.60;;;8.40;99.90;;;8.94;86.77;99771.53;5185262;28;20577;-59
2022/03/18 08:10:18;;;;;;;51.67;39.20;;;8.20;99.90;;;9.07;87.11;99776.13;5180757;28;20222;-60
2022/03/18 08:12:51;;;;;;;50.57;38.87;;;8.40;99.90;;;9.11;86.71;99785.84;5185934;28;20240;-60
2022/03/18 08:15:28;;;;;;;46.93;37.93;;;8.50;99.90;;;9.20;83.09;99783.28;5186500;28;20198;-60
2022/03/18 08:18:03;;;;;;;47.07;36.87;;;8.60;99.90;;;9.35;84.74;99794.88;5184100;28;20289;-60
2022/03/18 08:20:40;;;;;;;47.30;35.60;;;8.70;99.90;;;9.34;84.15;99795.66;5183022;28;20224;-60
2022/03/18 08:23:15;;;;;;;44.57;35.03;;;8.70;99.90;;;9.14;83.83;99788.69;5180922;28;20198;-59
2022/03/18 08:25:48;;;;;;;48.07;36.57;;;8.60;99.90;;;9.27;85.24;99800.03;5184248;28;20608;-59
2022/03/18 08:28:21;;;;;;;43.43;35.60;;;8.60;99.90;;;9.44;84.26;99795.78;5184574;28;20296;-60
2022/03/18 08:30:54;;;;;;;48.87;36.83;;;8.70;99.90;;;9.50;85.33;99795.44;5184376;28;20297;-59
2022/03/18 08:33:30;;;;;;;47.60;38.87;;;8.90;99.90;;;9.41;82.14;99798.03;5185144;28;20215;-59
2022/03/18 08:36:03;;;;;;;48.27;38.63;;;8.90;99.90;;;9.57;83.31;99812.22;5184720;28;20767;-59
2022/03/18 08:38:36;;;;;;;44.90;35.63;;;8.90;99.90;;;9.48;81.61;99815.69;5184563;28;20229;-59
2022/03/18 08:41:10;;;;;;;47.83;38.57;;;8.90;99.90;;;9.48;82.27;99820.81;5183878;28;20214;-60
2022/03/18 08:43:43;;;;;;;49.27;38.73;;;8.90;99.90;;;9.55;82.13;99821.38;5185136;28;20195;-58
2022/03/18 08:46:16;;;;;;;47.17;37.90;;;9.00;99.90;;;9.77;81.00;99822.59;5185051;28;20214;-58
2022/03/18 08:48:50;;;;;;;47.10;38.00;;;9.10;99.90;;;9.64;82.34;99827.31;5184291;28;20226;-59
2022/03/18 08:51:24;;;;;;;44.77;38.90;;;9.00;99.90;;;9.53;79.61;99825.44;5184993;28;20212;-59
2022/03/18 08:53:57;;;;;;;48.43;38.13;;;9.00;99.90;;;9.41;79.78;99821.00;5184463;28;20207;-59
2022/03/18 08:56:30;;;;;;;46.70;37.63;;;8.90;99.90;;;9.48;81.98;99823.34;5184783;28;20210;-58
2022/03/18 08:59:06;;;;;;;48.77;38.43;;;9.00;99.90;;;9.70;83.47;99816.03;5181104;28;20736;-59
2022/03/18 09:01:39;;;;;;;45.40;37.57;;;9.10;99.90;;;9.98;80.18;99817.66;5177569;28;20206;-59
2022/03/18 09:04:14;;;;;;;48.63;38.10;;;9.40;99.90;;;10.13;80.55;99814.84;5185098;28;20613;-59
2022/03/18 09:06:47;;;;;;;44.67;38.15;;;9.50;99.90;;;10.01;79.67;99813.72;5184701;28;20206;-59
2022/03/18 09:09:20;;;;;;;44.63;36.87;;;9.40;99.90;;;9.95;78.30;99827.59;5190613;28;20230;-59
2022/03/18 09:11:54;;;;;;;44.27;37.03;;;9.40;99.90;;;9.84;75.77;99822.41;5183114;28;20207;-59
2022/03/18 09:14:27;;;;;;;42.60;35.63;;;9.30;99.90;;;9.59;75.85;99818.38;5178775;28;20567;-59
2022/03/18 09:17:00;;;;;;;46.57;36.27;;;9.20;99.90;;;9.67;77.34;99838.75;5185948;28;20310;-58
2022/03/18 09:19:37;;;;;;;41.93;34.27;;;9.20;99.90;;;9.78;75.75;99839.72;5187688;28;20230;-59
2022/03/18 09:22:11;;;;;;;42.97;34.40;;;9.30;99.90;;;9.55;76.63;99839.25;5181729;28;20217;-60
2022/03/18 09:24:46;;;;;;;42.90;36.73;;;9.10;99.90;;;9.76;79.07;99840.31;5183479;28;20206;-59
2022/03/18 09:27:19;;;;;;;40.27;34.27;;;9.20;99.90;;;9.82;73.55;99840.91;5184467;28;20378;-58
2022/03/18 09:29:52;;;;;;;44.37;35.57;;;9.20;99.90;;;9.75;74.15;99843.63;5178880;28;20215;-59
2022/03/18 09:32:25;;;;;;;42.50;34.80;;;9.20;99.90;;;9.55;74.04;99844.34;5182701;28;20635;-59
2022/03/18 09:34:59;;;;;;;41.47;35.03;;;9.20;99.90;;;9.72;74.88;99840.81;5184058;28;20214;-59
2022/03/18 09:37:35;;;;;;;38.80;33.57;;;9.20;99.90;;;10.04;74.25;99859.09;5183526;28;20194;-59
2022/03/18 09:40:11;;;;;;;40.77;34.53;;;9.40;99.90;;;9.96;73.20;99847.25;5181759;28;20312;-59
2022/03/18 09:43:07;;;;;;;39.23;32.20;;;9.40;99.90;;;10.15;73.75;99848.19;5183269;28;20206;-59
2022/03/18 09:45:40;;;;;;;40.80;33.63;;;9.60;99.90;;;10.19;72.72;99850.28;5183473;28;20202;-59
2022/03/18 09:48:20;;;;;;;39.95;32.60;;;9.70;99.90;;;10.45;73.28;99856.88;5184684;28;20223;-59
2022/03/18 09:50:55;;;;;;;39.05;31.75;;;9.80;99.90;;;10.60;72.08;99865.91;5183716;28;20217;-60
2022/03/18 09:53:28;;;;;;;40.08;32.50;;;10.00;99.90;;;10.35;69.67;99862.78;5179435;28;20232;-60
2022/03/18 09:56:02;;;;;;;35.33;30.93;;;9.90;99.90;;;10.51;70.23;99860.88;5184441;28;20195;-59
2022/03/18 09:58:35;;;;;;;38.75;31.27;;;9.90;99.90;;;10.53;70.14;99863.53;5184274;28;20606;-59
2022/03/18 10:01:08;;;;;;;36.17;30.92;;;10.00;99.90;;;10.50;71.20;99868.38;5182707;28;20301;-59
2022/03/18 10:03:42;;;;;;;35.80;31.15;;;10.00;99.90;;;10.72;70.66;99867.00;5180537;28;20191;-60
2022/03/18 10:06:17;;;;;;;36.17;30.63;;;10.10;99.90;;;11.06;68.36;99862.28;5177208;28;20203;-58
2022/03/18 10:08:51;;;;;;;37.47;30.42;;;10.40;99.90;;;10.85;68.62;99863.88;5182258;28;20233;-58
2022/03/18 10:11:27;;;;;;;37.35;31.52;;;10.30;99.90;;;10.93;69.94;99864.53;5196587;28;20203;-59
2022/03/18 10:14:02;;;;;;;35.33;30.30;;;10.20;99.90;;;10.87;67.45;99869.09;5182839;28;20209;-58
2022/03/18 10:16:38;;;;;;;35.15;30.63;;;10.20;99.90;;;10.80;67.69;99881.34;5183501;28;20330;-58
2022/03/18 10:19:14;;;;;;;35.13;30.48;;;10.10;99.90;;;10.55;67.37;99877.38;5183054;28;20230;-57
2022/03/18 10:21:56;;;;;;;35.28;30.17;;;10.00;99.90;;;10.43;68.37;99868.59;5183228;28;20198;-58
2022/03/18 10:24:31;;;;;;;36.05;31.00;;;9.90;99.90;;;10.47;67.31;99868.13;5181190;28;20194;-57
2022/03/18 10:27:13;;;;;;;35.00;30.45;;;9.90;99.90;;;10.52;68.07;99865.22;5183750;28;20651;-57
2022/03/18 10:29:49;;;;;;;36.75;31.25;;;10.00;99.90;;;10.55;67.73;99862.03;5183650;28;20226;-56
2022/03/18 10:32:25;;;;;;;36.38;32.33;;;10.10;99.90;;;10.58;68.57;99867.41;5183803;28;20195;-58
2022/03/18 10:37:53;;;;;;;38.00;31.30;;;10.30;99.90;;;10.99;65.65;99865.09;5184035;28;20662;-57
2022/03/18 10:40:35;;;;;;;35.90;31.63;;;10.50;99.90;;;10.87;65.79;99864.00;5181872;28;20213;-57
2022/03/18 10:43:08;;;;;;;38.00;30.63;;;10.40;99.90;;;11.00;66.70;99867.78;5187038;28;20190;-53
2022/03/18 10:46:01;;;;;;;36.13;30.88;;;10.50;99.90;;;11.14;68.18;99863.88;5180206;28;20195;-54
2022/03/18 10:48:34;;;;;;;34.70;29.55;;;10.70;99.90;;;11.30;68.13;99872.84;5179539;28;20265;-58
2022/03/18 10:51:09;;;;;;;33.03;29.02;;;10.90;99.90;;;11.53;64.25;99869.72;5181978;28;20199;-58
2022/03/18 10:53:56;;;;;;;35.20;30.33;;;11.10;99.90;;;11.75;63.09;99862.22;5181919;28;20348;-59
2022/03/18 10:56:29;;;;;;;32.90;29.08;;;11.20;99.90;;;11.53;61.74;99875.72;5182012;28;20195;-56
2022/03/18 10:59:04;;;;;;;35.67;29.92;;;11.10;99.90;;;11.28;62.94;99871.06;5181827;28;20230;-58
2022/03/18 11:01:37;;;;;;;34.08;29.10;;;10.80;99.90;;;11.14;62.94;99858.75;5180638;28;20205;-57
2022/03/18 11:04:10;;;;;;;33.55;29.42;;;10.70;99.90;;;11.11;63.19;99860.16;5180991;28;20198;-57
2022/03/18 11:07:29;;;;;;;32.47;28.90;;;10.80;99.90;;;11.21;62.37;99861.06;5180828;28;20210;-59